createdAt,value
2022-08-21T00:01:22.091Z,24.50
2022-08-21T00:03:54.522Z,24.50
2022-08-21T00:06:26.913Z,24.40
2022-08-21T00:08:54.316Z,24.30
2022-08-21T00:11:21.801Z,24.30
2022-08-21T00:13:49.303Z,24.30
2022-08-21T00:16:19.201Z,24.20
2022-08-21T00:18:48.457Z,24.20
2022-08-21T00:21:19.037Z,24.20
2022-08-21T00:23:46.523Z,24.20
2022-08-21T00:26:13.978Z,24.30
2022-08-21T00:28:56.492Z,24.20
2022-08-21T00:31:53.470Z,24.20
2022-08-21T00:34:20.972Z,24.20
2022-08-21T00:36:50.825Z,24.20
2022-08-21T00:39:18.238Z,24.10
2022-08-21T00:41:49.831Z,24.10
2022-08-21T00:44:17.564Z,24.00
2022-08-21T00:46:56.861Z,24.00
2022-08-21T00:49:24.280Z,24.00
2022-08-21T00:51:56.633Z,24.00
2022-08-21T00:54:28.242Z,24.00
2022-08-21T00:57:21.998Z,24.10
2022-08-21T01:00:08.878Z,24.00
2022-08-21T01:02:40.649Z,24.00
2022-08-21T01:05:22.765Z,24.00
2022-08-21T01:07:52.897Z,24.00
2022-08-21T01:10:40.357Z,24.00
2022-08-21T01:13:33.967Z,24.00
2022-08-21T01:16:11.341Z,23.90
2022-08-21T01:18:38.796Z,23.90
2022-08-21T01:21:21.491Z,23.90
2022-08-21T01:23:51.957Z,23.90
2022-08-21T01:26:23.918Z,23.90
2022-08-21T01:29:36.277Z,23.90
2022-08-21T01:32:12.993Z,23.90
2022-08-21T01:34:44.982Z,23.90
2022-08-21T01:37:13.173Z,23.90
2022-08-21T01:39:45.545Z,23.80
2022-08-21T01:42:14.238Z,23.80
2022-08-21T01:44:47.397Z,23.70
2022-08-21T01:47:15.827Z,23.70
2022-08-21T01:49:49.449Z,23.70
2022-08-21T01:52:16.923Z,23.60
2022-08-21T01:54:44.339Z,23.60
2022-08-21T01:57:13.800Z,23.60
2022-08-21T01:59:41.290Z,23.60
2022-08-21T02:02:12.494Z,23.60
2022-08-21T02:04:41.122Z,23.60
2022-08-21T02:07:12.629Z,23.60
2022-08-21T02:09:46.777Z,23.60
2022-08-21T02:12:14.505Z,23.60
2022-08-21T02:14:41.872Z,23.60
2022-08-21T02:17:09.815Z,23.60
2022-08-21T02:19:44.267Z,23.50
2022-08-21T02:22:12.479Z,23.60
2022-08-21T02:24:54.656Z,23.60
2022-08-21T02:27:28.524Z,23.60
2022-08-21T02:29:58.097Z,23.60
2022-08-21T02:33:06.083Z,23.60
2022-08-21T02:35:45.577Z,23.70
2022-08-21T02:38:31.733Z,23.70
2022-08-21T02:41:03.137Z,23.70
2022-08-21T02:43:32.413Z,23.70
2022-08-21T02:46:09.606Z,23.70
2022-08-21T02:48:37.833Z,23.60
2022-08-21T02:51:07.174Z,23.60
2022-08-21T02:53:38.026Z,23.70
2022-08-21T02:56:16.474Z,23.60
2022-08-21T02:58:50.209Z,23.60
2022-08-21T03:01:22.830Z,23.60
2022-08-21T03:03:54.587Z,23.60
2022-08-21T03:06:23.741Z,23.60
2022-08-21T03:08:54.458Z,23.60
2022-08-21T03:11:21.974Z,23.60
2022-08-21T03:13:49.609Z,23.60
2022-08-21T03:16:17.097Z,23.60
2022-08-21T03:18:44.494Z,23.60
2022-08-21T03:21:13.024Z,23.60
2022-08-21T03:23:44.024Z,23.60
2022-08-21T03:26:12.517Z,23.60
2022-08-21T03:28:40.386Z,23.60
2022-08-21T03:31:07.797Z,23.60
2022-08-21T03:33:44.093Z,23.60
2022-08-21T03:36:12.115Z,23.60
2022-08-21T03:38:41.298Z,23.60
2022-08-21T03:41:09.832Z,23.60
2022-08-21T03:43:37.329Z,23.60
2022-08-21T03:46:07.807Z,23.60
2022-08-21T03:48:37.946Z,23.60
2022-08-21T03:51:06.079Z,23.60
2022-08-21T03:53:34.973Z,23.50
2022-08-21T03:56:10.276Z,23.40
2022-08-21T03:58:39.256Z,23.40
2022-08-21T04:01:09.119Z,23.50
2022-08-21T04:03:40.942Z,23.50
2022-08-21T04:06:08.637Z,23.50
2022-08-21T04:08:39.514Z,23.50
2022-08-21T04:11:07.150Z,23.40
2022-08-21T04:13:35.063Z,23.40
2022-08-21T04:16:15.867Z,23.40
2022-08-21T04:18:51.285Z,23.40
2022-08-21T04:21:18.867Z,23.40
2022-08-21T04:23:51.674Z,23.40
2022-08-21T04:26:19.095Z,23.40
2022-08-21T04:28:46.519Z,23.40
2022-08-21T04:31:14.176Z,23.40
2022-08-21T04:33:41.744Z,23.40
2022-08-21T04:36:09.569Z,23.40
2022-08-21T04:38:44.437Z,23.40
2022-08-21T04:41:12.579Z,23.40
2022-08-21T04:43:40.809Z,23.50
2022-08-21T04:46:08.316Z,23.40
2022-08-21T04:48:56.124Z,23.40
2022-08-21T04:51:47.745Z,23.40
2022-08-21T04:54:23.314Z,23.40
2022-08-21T04:56:57.294Z,23.40
2022-08-21T04:59:34.638Z,23.40
2022-08-21T05:02:06.247Z,23.40
2022-08-21T05:04:39.951Z,23.40
2022-08-21T05:07:11.133Z,23.40
2022-08-21T05:09:39.652Z,23.50
2022-08-21T05:12:08.458Z,23.50
2022-08-21T05:14:36.111Z,23.50
2022-08-21T05:17:06.744Z,23.60
2022-08-21T05:19:34.170Z,23.60
2022-08-21T05:22:01.846Z,23.70
2022-08-21T05:24:29.602Z,23.70
2022-08-21T05:26:57.373Z,23.70
2022-08-21T05:29:24.790Z,23.70
2022-08-21T05:32:14.378Z,23.70
2022-08-21T05:34:43.228Z,23.70
2022-08-21T05:37:13.165Z,23.80
2022-08-21T05:40:21.776Z,23.80
2022-08-21T05:42:29.191Z,23.90
2022-08-21T05:44:56.608Z,23.90
2022-08-21T05:47:24.623Z,24.00
2022-08-21T05:49:55.894Z,24.00
2022-08-21T05:52:23.946Z,24.10
2022-08-21T05:54:51.771Z,24.10
2022-08-21T05:57:19.155Z,24.20
2022-08-21T05:59:46.572Z,24.20
2022-08-21T06:02:14.130Z,24.20
2022-08-21T06:04:42.989Z,24.30
2022-08-21T06:07:10.442Z,24.30
2022-08-21T06:09:38.999Z,24.30
2022-08-21T06:12:12.179Z,24.30
2022-08-21T06:14:40.284Z,24.30
2022-08-21T06:17:09.869Z,24.40
2022-08-21T06:19:39.848Z,24.40
2022-08-21T06:22:07.406Z,24.50
2022-08-21T06:24:35.066Z,24.40
2022-08-21T06:27:26.746Z,24.50
2022-08-21T06:29:58.393Z,24.60
2022-08-21T06:32:25.867Z,24.60
2022-08-21T06:34:53.490Z,24.60
2022-08-21T06:37:21.068Z,24.70
2022-08-21T06:39:48.557Z,24.80
2022-08-21T06:42:17.861Z,24.80
2022-08-21T06:44:45.453Z,24.90
2022-08-21T06:47:12.860Z,24.90
2022-08-21T06:49:40.492Z,25.00
2022-08-21T06:52:13.005Z,25.00
2022-08-21T06:55:06.797Z,25.10
2022-08-21T06:57:52.544Z,25.20
2022-08-21T07:00:21.148Z,25.20
2022-08-21T07:02:49.778Z,25.20
2022-08-21T07:05:20.343Z,25.20
2022-08-21T07:07:50.933Z,25.30
2022-08-21T07:10:44.413Z,25.30
2022-08-21T07:16:08.033Z,25.40
2022-08-21T07:18:46.122Z,25.50
2022-08-21T07:21:41.153Z,25.50
2022-08-21T07:24:08.858Z,25.60
2022-08-21T07:26:36.955Z,25.60
2022-08-21T07:29:05.009Z,25.70
2022-08-21T07:31:32.807Z,25.70
2022-08-21T07:34:04.337Z,25.80
2022-08-21T07:36:33.298Z,25.80
2022-08-21T07:39:03.350Z,25.90
2022-08-21T07:41:32.957Z,26.00
2022-08-21T07:44:00.964Z,26.10
2022-08-21T07:46:29.057Z,26.20
2022-08-21T07:48:57.222Z,26.20
2022-08-21T07:51:28.378Z,26.20
2022-08-21T07:54:00.332Z,26.30
2022-08-21T07:56:31.378Z,26.40
2022-08-21T07:58:59.054Z,26.40
2022-08-21T08:01:26.682Z,26.50
2022-08-21T08:03:57.833Z,26.60
2022-08-21T08:06:25.234Z,26.70
2022-08-21T08:08:53.078Z,26.70
2022-08-21T08:11:20.519Z,26.80
2022-08-21T08:13:50.523Z,26.80
2022-08-21T08:16:18.767Z,27.00
2022-08-21T08:18:58.366Z,27.00
2022-08-21T08:21:25.824Z,27.10
2022-08-21T08:23:53.296Z,27.20
2022-08-21T08:26:20.906Z,27.30
2022-08-21T08:28:49.128Z,27.30
2022-08-21T08:31:16.809Z,27.40
2022-08-21T08:33:44.270Z,27.50
2022-08-21T08:36:19.961Z,27.50
2022-08-21T08:38:48.934Z,27.60
2022-08-21T08:41:30.774Z,27.60
2022-08-21T08:44:05.640Z,27.70
2022-08-21T08:46:41.860Z,27.80
2022-08-21T08:49:21.675Z,27.90
2022-08-21T08:51:58.411Z,27.90
2022-08-21T08:54:40.438Z,28.00
2022-08-21T08:57:25.598Z,28.10
2022-08-21T09:00:23.304Z,28.10
2022-08-21T09:03:03.198Z,28.20
2022-08-21T09:05:44.080Z,28.30
2022-08-21T09:08:19.097Z,28.40
2022-08-21T09:11:29.624Z,28.50
2022-08-21T09:14:38.152Z,28.60
2022-08-21T09:17:37.896Z,28.60
2022-08-21T09:20:20.379Z,28.70
2022-08-21T09:23:14.638Z,28.80
2022-08-21T09:26:11.370Z,28.90
2022-08-21T09:28:39.328Z,28.90
2022-08-21T09:31:29.825Z,28.90
2022-08-21T09:34:10.079Z,29.00
2022-08-21T09:36:40.109Z,29.00
2022-08-21T09:39:08.974Z,29.10
2022-08-21T09:41:39.054Z,29.20
2022-08-21T09:50:20.813Z,29.40
2022-08-21T09:53:45.041Z,29.50
2022-08-21T09:57:13.704Z,29.60
2022-08-21T10:03:44.974Z,29.80
2022-08-21T10:06:32.235Z,29.90
2022-08-21T10:09:38.390Z,29.90
2022-08-21T10:12:26.274Z,30.00
2022-08-21T10:15:23.802Z,30.10
2022-08-21T10:18:09.129Z,30.20
2022-08-21T10:20:46.290Z,30.30
2022-08-21T10:23:34.843Z,30.30
2022-08-21T10:26:31.256Z,30.30
2022-08-21T10:29:36.671Z,30.40
2022-08-21T10:35:19.083Z,30.60
2022-08-21T10:37:54.209Z,30.70
2022-08-21T10:40:27.694Z,30.80
2022-08-21T10:43:21.500Z,30.90
2022-08-21T10:46:03.689Z,30.90
2022-08-21T10:48:39.244Z,31.00
2022-08-21T10:51:29.083Z,31.10
2022-08-21T10:54:23.201Z,31.20
2022-08-21T10:57:06.411Z,31.30
2022-08-21T10:59:48.152Z,31.50
2022-08-21T11:02:38.232Z,31.60
2022-08-21T11:05:28.939Z,31.70
2022-08-21T11:08:07.655Z,31.80
2022-08-21T11:10:55.184Z,31.80
2022-08-21T11:13:49.848Z,31.70
2022-08-21T11:16:56.754Z,31.80
2022-08-21T11:19:36.561Z,31.90
2022-08-21T11:23:00.016Z,31.90
2022-08-21T11:25:50.320Z,32.00
2022-08-21T11:28:53.471Z,32.10
2022-08-21T11:31:36.140Z,32.10
2022-08-21T11:34:25.062Z,32.20
2022-08-21T11:37:16.901Z,32.20
2022-08-21T11:40:29.229Z,32.20
2022-08-21T11:43:20.247Z,32.30
2022-08-21T11:46:16.234Z,32.40
2022-08-21T11:48:49.226Z,32.40
2022-08-21T11:51:44.290Z,32.40
2022-08-21T11:54:28.002Z,32.40
2022-08-21T11:57:20.580Z,32.40
2022-08-21T12:00:23.382Z,32.30
2022-08-21T12:03:02.147Z,32.40
2022-08-21T12:05:41.973Z,32.50
2022-08-21T12:08:53.236Z,32.60
2022-08-21T12:12:26.251Z,32.70
2022-08-21T12:15:08.278Z,32.80
2022-08-21T12:17:54.907Z,32.70
2022-08-21T12:23:49.728Z,32.70
2022-08-21T12:26:54.964Z,32.80
2022-08-21T12:29:29.513Z,32.90
2022-08-21T12:31:58.920Z,33.00
2022-08-21T12:35:03.384Z,33.00
2022-08-21T12:37:44.148Z,32.90
2022-08-21T12:40:24.545Z,32.80
2022-08-21T12:43:07.832Z,32.60
2022-08-21T12:46:03.260Z,32.40
2022-08-21T12:48:50.862Z,32.30
2022-08-21T12:51:58.554Z,32.30
2022-08-21T12:55:00.387Z,32.30
2022-08-21T12:57:30.821Z,32.30
2022-08-21T13:00:21.976Z,32.40
2022-08-21T13:03:03.957Z,32.40
2022-08-21T13:06:11.218Z,32.40
2022-08-21T13:08:41.654Z,32.30
2022-08-21T13:11:17.791Z,32.30
2022-08-21T13:14:05.710Z,32.30
2022-08-21T13:16:38.645Z,32.30
2022-08-21T13:19:26.823Z,32.40
2022-08-21T13:21:59.206Z,32.40
2022-08-21T13:24:47.954Z,32.40
2022-08-21T13:27:29.133Z,32.50
2022-08-21T13:30:43.326Z,32.60
2022-08-21T13:33:36.423Z,32.60
2022-08-21T13:36:45.898Z,32.60
2022-08-21T13:39:34.983Z,32.50
2022-08-21T13:42:23.785Z,32.40
2022-08-21T13:45:01.106Z,32.30
2022-08-21T13:47:43.222Z,32.20
2022-08-21T13:50:31.000Z,32.20
2022-08-21T13:53:14.591Z,32.20
2022-08-21T13:55:47.630Z,32.30
2022-08-21T13:58:34.819Z,32.20
2022-08-21T14:01:06.567Z,32.20
2022-08-21T14:04:26.300Z,32.20
2022-08-21T14:06:55.356Z,32.20
2022-08-21T14:09:51.785Z,32.30
2022-08-21T14:12:25.093Z,32.30
2022-08-21T14:15:15.182Z,32.30
2022-08-21T14:17:47.496Z,32.20
2022-08-21T14:20:34.907Z,32.20
2022-08-21T14:23:04.893Z,32.10
2022-08-21T14:25:49.695Z,32.20
2022-08-21T14:28:35.999Z,32.10
2022-08-21T14:31:53.302Z,32.00
2022-08-21T14:34:25.073Z,32.00
2022-08-21T14:37:16.180Z,31.90
2022-08-21T14:39:45.347Z,31.90
2022-08-21T14:42:14.372Z,31.90
2022-08-21T14:44:42.066Z,31.80
2022-08-21T14:47:10.578Z,31.70
2022-08-21T14:49:42.683Z,31.70
2022-08-21T14:52:10.374Z,31.70
2022-08-21T14:54:42.128Z,31.60
2022-08-21T14:57:13.452Z,31.60
2022-08-21T14:59:42.152Z,31.60
2022-08-21T15:02:10.565Z,31.60
2022-08-21T15:04:39.623Z,31.60
2022-08-21T15:07:07.081Z,31.60
2022-08-21T15:09:35.176Z,31.50
2022-08-21T15:12:03.768Z,31.50
2022-08-21T15:14:35.784Z,31.50
2022-08-21T15:17:05.122Z,31.60
2022-08-21T15:19:32.592Z,31.60
2022-08-21T15:22:00.715Z,31.60
2022-08-21T15:24:28.921Z,31.60
2022-08-21T15:27:00.137Z,31.60
2022-08-21T15:29:28.990Z,31.60
2022-08-21T15:32:47.073Z,31.60
2022-08-21T15:35:14.616Z,31.60
2022-08-21T15:37:42.368Z,31.60
2022-08-21T15:40:10.575Z,31.60
2022-08-21T15:42:56.143Z,31.50
2022-08-21T15:45:43.537Z,31.40
2022-08-21T15:48:14.025Z,31.40
2022-08-21T15:53:44.010Z,31.30
2022-08-21T15:56:30.404Z,31.30
2022-08-21T15:59:03.782Z,31.30
2022-08-21T16:02:34.443Z,31.20
2022-08-21T16:05:02.344Z,31.20
2022-08-21T16:07:33.099Z,31.20
2022-08-21T16:10:00.512Z,31.10
2022-08-21T16:12:48.917Z,31.10
2022-08-21T16:15:38.299Z,31.10
2022-08-21T16:18:45.745Z,31.10
2022-08-21T16:21:13.672Z,31.10
2022-08-21T16:23:41.587Z,31.10
2022-08-21T16:26:33.858Z,31.00
2022-08-21T16:29:18.842Z,31.00
2022-08-21T16:34:32.203Z,31.00
2022-08-21T16:36:59.829Z,31.00
2022-08-21T16:39:27.565Z,30.90
2022-08-21T16:41:58.876Z,30.90
2022-08-21T16:44:26.886Z,30.90
2022-08-21T16:46:58.412Z,30.90
2022-08-21T16:49:25.984Z,30.80
2022-08-21T16:51:55.124Z,30.80
2022-08-21T16:54:22.588Z,30.70
2022-08-21T16:56:54.415Z,30.80
2022-08-21T16:59:22.018Z,30.70
2022-08-21T17:01:58.938Z,30.80
2022-08-21T17:04:36.566Z,30.70
2022-08-21T17:07:03.984Z,30.70
2022-08-21T17:12:56.057Z,30.70
2022-08-21T17:15:44.773Z,30.60
2022-08-21T17:18:36.756Z,30.60
2022-08-21T17:21:09.055Z,30.60
2022-08-21T17:23:36.637Z,30.50
2022-08-21T17:26:08.702Z,30.60
2022-08-21T17:28:40.508Z,30.50
2022-08-21T17:31:10.584Z,30.50
2022-08-21T17:33:59.328Z,30.40
2022-08-21T17:36:31.539Z,30.40
2022-08-21T17:39:01.421Z,30.40
2022-08-21T17:41:48.851Z,30.40
2022-08-21T17:44:22.680Z,30.30
2022-08-21T17:46:50.343Z,30.20
2022-08-21T17:49:17.807Z,30.20
2022-08-21T17:51:45.939Z,30.10
2022-08-21T17:54:13.404Z,30.10
2022-08-21T17:56:42.553Z,30.00
2022-08-21T17:59:13.499Z,30.00
2022-08-21T18:02:01.670Z,29.90
2022-08-21T18:04:30.724Z,29.80
2022-08-21T18:06:58.444Z,29.80
2022-08-21T18:09:28.544Z,29.70
2022-08-21T18:12:00.341Z,29.70
2022-08-21T18:14:33.968Z,29.60
2022-08-21T18:17:02.372Z,29.60
2022-08-21T18:19:29.754Z,29.50
2022-08-21T18:21:58.827Z,29.40
2022-08-21T18:24:49.317Z,29.30
2022-08-21T18:27:18.031Z,29.30
2022-08-21T18:29:48.954Z,29.20
2022-08-21T18:32:43.136Z,29.20
2022-08-21T18:35:17.150Z,29.20
2022-08-21T18:37:44.755Z,29.10
2022-08-21T18:40:12.429Z,29.10
2022-08-21T18:42:55.155Z,29.00
2022-08-21T18:45:23.962Z,29.00
2022-08-21T18:47:55.485Z,28.90
2022-08-21T18:50:35.884Z,28.90
2022-08-21T18:55:52.167Z,28.80
2022-08-21T18:58:19.631Z,28.80
2022-08-21T19:01:09.168Z,28.80
2022-08-21T19:03:36.967Z,28.80
2022-08-21T19:06:04.680Z,28.70
2022-08-21T19:08:32.086Z,28.70
2022-08-21T19:11:03.706Z,28.70
2022-08-21T19:13:33.907Z,28.60
2022-08-21T19:16:19.349Z,28.50
2022-08-21T19:18:47.326Z,28.50
2022-08-21T19:21:15.075Z,28.40
2022-08-21T19:23:45.217Z,28.40
2022-08-21T19:26:18.601Z,28.30
2022-08-21T19:28:50.193Z,28.30
2022-08-21T19:31:24.937Z,28.20
2022-08-21T19:34:08.344Z,28.20
2022-08-21T19:36:35.963Z,28.10
2022-08-21T19:39:08.203Z,28.00
2022-08-21T19:41:46.146Z,28.00
2022-08-21T19:44:21.713Z,28.00
2022-08-21T19:46:52.065Z,28.00
2022-08-21T19:49:33.310Z,28.00
2022-08-21T19:52:14.106Z,28.00
2022-08-21T19:54:44.750Z,28.00
2022-08-21T19:57:12.968Z,28.00
2022-08-21T19:59:41.301Z,27.90
2022-08-21T20:02:28.656Z,27.90
2022-08-21T20:04:56.162Z,27.90
2022-08-21T20:07:26.578Z,27.80
2022-08-21T20:10:04.419Z,27.80
2022-08-21T20:12:35.393Z,27.70
2022-08-21T20:15:04.118Z,27.70
2022-08-21T20:17:43.253Z,27.70
2022-08-21T20:20:13.779Z,27.70
2022-08-21T20:22:41.973Z,27.70
2022-08-21T20:27:57.079Z,27.70
2022-08-21T20:30:24.515Z,27.70
2022-08-21T20:33:03.048Z,27.60
2022-08-21T20:35:35.288Z,27.60
2022-08-21T20:38:04.613Z,27.60
2022-08-21T22:47:20.850Z,26.90
2022-08-21T22:49:50.525Z,26.90
2022-08-21T22:52:25.342Z,26.80
2022-08-21T22:55:47.632Z,26.80
2022-08-21T22:58:18.043Z,26.80
2022-08-21T23:00:53.721Z,26.70
2022-08-21T23:03:47.202Z,26.70
2022-08-21T23:06:52.652Z,26.70
2022-08-21T23:09:57.261Z,26.70
2022-08-21T23:12:33.932Z,26.60
2022-08-21T23:15:13.132Z,26.60
2022-08-21T23:18:21.127Z,26.60
2022-08-21T23:21:13.662Z,26.50
2022-08-21T23:24:19.642Z,26.50
2022-08-21T23:27:18.444Z,26.50
2022-08-21T23:30:19.062Z,26.50
2022-08-21T23:33:24.091Z,26.50
2022-08-21T23:36:25.976Z,26.40
2022-08-21T23:39:08.329Z,26.40
2022-08-21T23:42:01.293Z,26.40
2022-08-21T23:44:57.796Z,26.40
2022-08-21T23:52:00.180Z,26.30
2022-08-21T23:54:47.525Z,26.30
2022-08-21T23:57:37.725Z,26.20
